sensor_id;sensor_type;location;lat;lon;timestamp;P1;durP1;ratioP1;P2;durP2;ratioP2
16300;SDS011;8258;51.020;4.248;2023-04-06T00:00:13;0.00;;;0.00;;
16300;SDS011;8258;51.020;4.248;2023-04-06T00:02:42;0.00;;;0.00;;
16300;SDS011;8258;51.020;4.248;2023-04-06T00:05:09;0.10;;;0.10;;
16300;SDS011;8258;51.020;4.248;2023-04-06T00:07:36;0.40;;;0.40;;
16300;SDS011;8258;51.020;4.248;2023-04-06T00:10:04;0.00;;;0.00;;
16300;SDS011;8258;51.020;4.248;2023-04-06T00:12:31;0.07;;;0.07;;
16300;SDS011;8258;51.020;4.248;2023-04-06T00:14:58;0.37;;;0.37;;
16300;SDS011;8258;51.020;4.248;2023-04-06T00:17:26;0.20;;;0.10;;
16300;SDS011;8258;51.020;4.248;2023-04-06T00:19:54;0.00;;;0.00;;
16300;SDS011;8258;51.020;4.248;2023-04-06T00:22:21;1.53;;;1.43;;
16300;SDS011;8258;51.020;4.248;2023-04-06T00:24:48;4.23;;;3.77;;
16300;SDS011;8258;51.020;4.248;2023-04-06T00:27:15;0.10;;;0.10;;
16300;SDS011;8258;51.020;4.248;2023-04-06T00:29:43;1.07;;;0.53;;
16300;SDS011;8258;51.020;4.248;2023-04-06T00:32:10;0.00;;;0.00;;
16300;SDS011;8258;51.020;4.248;2023-04-06T00:34:37;0.00;;;0.00;;
16300;SDS011;8258;51.020;4.248;2023-04-06T00:37:05;0.43;;;0.43;;
16300;SDS011;8258;51.020;4.248;2023-04-06T00:39:32;0.00;;;0.00;;
16300;SDS011;8258;51.020;4.248;2023-04-06T00:42:00;0.00;;;0.00;;
16300;SDS011;8258;51.020;4.248;2023-04-06T00:44:33;0.00;;;0.00;;
16300;SDS011;8258;51.020;4.248;2023-04-06T00:47:00;0.00;;;0.00;;
16300;SDS011;8258;51.020;4.248;2023-04-06T00:49:27;0.00;;;0.00;;
16300;SDS011;8258;51.020;4.248;2023-04-06T00:51:54;0.20;;;0.20;;
16300;SDS011;8258;51.020;4.248;2023-04-06T00:54:23;0.00;;;0.00;;
16300;SDS011;8258;51.020;4.248;2023-04-06T00:56:50;0.20;;;0.20;;
16300;SDS011;8258;51.020;4.248;2023-04-06T00:59:17;1.03;;;1.03;;
16300;SDS011;8258;51.020;4.248;2023-04-06T01:01:44;0.00;;;0.00;;
16300;SDS011;8258;51.020;4.248;2023-04-06T01:04:11;0.00;;;0.00;;
16300;SDS011;8258;51.020;4.248;2023-04-06T01:06:38;0.47;;;0.47;;
16300;SDS011;8258;51.020;4.248;2023-04-06T01:09:05;0.10;;;0.07;;
16300;SDS011;8258;51.020;4.248;2023-04-06T01:11:34;0.00;;;0.00;;
16300;SDS011;8258;51.020;4.248;2023-04-06T01:14:02;0.00;;;0.00;;
16300;SDS011;8258;51.020;4.248;2023-04-06T01:16:30;0.00;;;0.00;;
16300;SDS011;8258;51.020;4.248;2023-04-06T01:18:57;4.13;;;0.60;;
16300;SDS011;8258;51.020;4.248;2023-04-06T01:21:24;0.00;;;0.00;;
16300;SDS011;8258;51.020;4.248;2023-04-06T01:23:52;0.70;;;0.30;;
16300;SDS011;8258;51.020;4.248;2023-04-06T01:26:19;0.53;;;0.40;;
16300;SDS011;8258;51.020;4.248;2023-04-06T01:28:46;0.20;;;0.20;;
16300;SDS011;8258;51.020;4.248;2023-04-06T01:31:13;0.50;;;0.50;;
16300;SDS011;8258;51.020;4.248;2023-04-06T01:33:40;0.00;;;0.00;;
16300;SDS011;8258;51.020;4.248;2023-04-06T01:36:07;1.80;;;1.70;;
16300;SDS011;8258;51.020;4.248;2023-04-06T01:38:35;0.20;;;0.20;;
16300;SDS011;8258;51.020;4.248;2023-04-06T01:41:03;4.13;;;2.07;;
16300;SDS011;8258;51.020;4.248;2023-04-06T01:43:30;0.53;;;0.53;;
16300;SDS011;8258;51.020;4.248;2023-04-06T01:45:57;0.67;;;0.57;;
16300;SDS011;8258;51.020;4.248;2023-04-06T01:48:25;0.00;;;0.00;;
16300;SDS011;8258;51.020;4.248;2023-04-06T01:50:52;0.10;;;0.10;;
16300;SDS011;8258;51.020;4.248;2023-04-06T01:53:20;0.10;;;0.10;;
16300;SDS011;8258;51.020;4.248;2023-04-06T01:55:47;1.90;;;1.80;;
16300;SDS011;8258;51.020;4.248;2023-04-06T01:58:15;1.30;;;0.20;;
16300;SDS011;8258;51.020;4.248;2023-04-06T02:00:42;0.20;;;0.20;;
16300;SDS011;8258;51.020;4.248;2023-04-06T02:03:09;0.30;;;0.10;;
16300;SDS011;8258;51.020;4.248;2023-04-06T02:05:36;1.27;;;1.17;;
16300;SDS011;8258;51.020;4.248;2023-04-06T02:08:03;0.33;;;0.33;;
16300;SDS011;8258;51.020;4.248;2023-04-06T02:10:31;1.10;;;1.10;;
16300;SDS011;8258;51.020;4.248;2023-04-06T02:12:58;0.00;;;0.00;;
16300;SDS011;8258;51.020;4.248;2023-04-06T02:15:26;0.30;;;0.30;;
16300;SDS011;8258;51.020;4.248;2023-04-06T02:17:53;0.20;;;0.13;;
16300;SDS011;8258;51.020;4.248;2023-04-06T02:20:20;0.33;;;0.33;;
16300;SDS011;8258;51.020;4.248;2023-04-06T02:22:47;0.00;;;0.00;;
16300;SDS011;8258;51.020;4.248;2023-04-06T02:25:14;0.00;;;0.00;;
16300;SDS011;8258;51.020;4.248;2023-04-06T02:27:42;0.00;;;0.00;;
16300;SDS011;8258;51.020;4.248;2023-04-06T02:30:09;0.00;;;0.00;;
16300;SDS011;8258;51.020;4.248;2023-04-06T02:32:38;0.00;;;0.00;;
16300;SDS011;8258;51.020;4.248;2023-04-06T02:35:05;0.17;;;0.17;;
16300;SDS011;8258;51.020;4.248;2023-04-06T02:37:32;0.10;;;0.10;;
16300;SDS011;8258;51.020;4.248;2023-04-06T02:39:59;0.20;;;0.20;;
16300;SDS011;8258;51.020;4.248;2023-04-06T02:42:26;0.00;;;0.00;;
16300;SDS011;8258;51.020;4.248;2023-04-06T02:44:53;0.00;;;0.00;;
16300;SDS011;8258;51.020;4.248;2023-04-06T02:47:20;1.30;;;0.70;;
16300;SDS011;8258;51.020;4.248;2023-04-06T02:49:48;0.70;;;0.70;;
16300;SDS011;8258;51.020;4.248;2023-04-06T02:52:15;0.53;;;0.53;;
16300;SDS011;8258;51.020;4.248;2023-04-06T02:54:43;0.30;;;0.30;;
16300;SDS011;8258;51.020;4.248;2023-04-06T02:57:10;2.10;;;0.77;;
16300;SDS011;8258;51.020;4.248;2023-04-06T02:59:37;0.73;;;0.73;;
16300;SDS011;8258;51.020;4.248;2023-04-06T03:02:04;0.00;;;0.00;;
16300;SDS011;8258;51.020;4.248;2023-04-06T03:04:31;0.60;;;0.60;;
16300;SDS011;8258;51.020;4.248;2023-04-06T03:06:59;0.33;;;0.33;;
16300;SDS011;8258;51.020;4.248;2023-04-06T03:09:26;2.23;;;0.77;;
16300;SDS011;8258;51.020;4.248;2023-04-06T03:11:53;0.00;;;0.00;;
16300;SDS011;8258;51.020;4.248;2023-04-06T03:14:20;0.00;;;0.00;;
16300;SDS011;8258;51.020;4.248;2023-04-06T03:16:47;0.00;;;0.00;;
16300;SDS011;8258;51.020;4.248;2023-04-06T03:19:15;0.97;;;0.87;;
16300;SDS011;8258;51.020;4.248;2023-04-06T03:21:42;0.00;;;0.00;;
16300;SDS011;8258;51.020;4.248;2023-04-06T03:24:10;1.03;;;1.03;;
16300;SDS011;8258;51.020;4.248;2023-04-06T03:26:38;0.67;;;0.43;;
16300;SDS011;8258;51.020;4.248;2023-04-06T03:29:05;0.00;;;0.00;;
16300;SDS011;8258;51.020;4.248;2023-04-06T03:31:32;7.87;;;2.63;;
16300;SDS011;8258;51.020;4.248;2023-04-06T03:33:59;9.87;;;9.37;;
16300;SDS011;8258;51.020;4.248;2023-04-06T03:36:26;5.93;;;5.73;;
16300;SDS011;8258;51.020;4.248;2023-04-06T03:38:53;6.80;;;6.20;;
16300;SDS011;8258;51.020;4.248;2023-04-06T03:41:22;0.57;;;0.57;;
16300;SDS011;8258;51.020;4.248;2023-04-06T03:43:48;0.77;;;0.77;;
16300;SDS011;8258;51.020;4.248;2023-04-06T03:46:15;2.67;;;2.13;;
16300;SDS011;8258;51.020;4.248;2023-04-06T03:48:42;3.17;;;2.33;;
16300;SDS011;8258;51.020;4.248;2023-04-06T03:51:09;1.23;;;0.60;;
16300;SDS011;8258;51.020;4.248;2023-04-06T03:53:36;0.33;;;0.33;;
16300;SDS011;8258;51.020;4.248;2023-04-06T03:56:04;0.00;;;0.00;;
16300;SDS011;8258;51.020;4.248;2023-04-06T03:58:32;0.00;;;0.00;;
16300;SDS011;8258;51.020;4.248;2023-04-06T04:01:00;0.50;;;0.50;;
16300;SDS011;8258;51.020;4.248;2023-04-06T04:03:26;2.30;;;2.13;;
16300;SDS011;8258;51.020;4.248;2023-04-06T04:05:54;5.53;;;1.27;;
16300;SDS011;8258;51.020;4.248;2023-04-06T04:08:21;0.23;;;0.23;;
16300;SDS011;8258;51.020;4.248;2023-04-06T04:10:48;0.00;;;0.00;;
16300;SDS011;8258;51.020;4.248;2023-04-06T04:13:15;0.50;;;0.50;;
16300;SDS011;8258;51.020;4.248;2023-04-06T04:15:43;0.60;;;0.60;;
16300;SDS011;8258;51.020;4.248;2023-04-06T04:18:12;0.27;;;0.27;;
16300;SDS011;8258;51.020;4.248;2023-04-06T04:20:39;0.37;;;0.37;;
16300;SDS011;8258;51.020;4.248;2023-04-06T04:23:06;0.53;;;0.33;;
16300;SDS011;8258;51.020;4.248;2023-04-06T04:25:33;0.47;;;0.47;;
16300;SDS011;8258;51.020;4.248;2023-04-06T04:28:00;0.53;;;0.53;;
16300;SDS011;8258;51.020;4.248;2023-04-06T04:30:27;0.03;;;0.03;;
16300;SDS011;8258;51.020;4.248;2023-04-06T04:32:55;1.30;;;1.30;;
16300;SDS011;8258;51.020;4.248;2023-04-06T04:35:22;0.23;;;0.23;;
16300;SDS011;8258;51.020;4.248;2023-04-06T04:37:49;0.00;;;0.00;;
16300;SDS011;8258;51.020;4.248;2023-04-06T04:40:16;0.00;;;0.00;;
16300;SDS011;8258;51.020;4.248;2023-04-06T04:42:43;0.00;;;0.00;;
16300;SDS011;8258;51.020;4.248;2023-04-06T04:45:11;0.00;;;0.00;;
16300;SDS011;8258;51.020;4.248;2023-04-06T04:47:38;0.00;;;0.00;;
16300;SDS011;8258;51.020;4.248;2023-04-06T04:50:07;0.00;;;0.00;;
16300;SDS011;8258;51.020;4.248;2023-04-06T04:52:34;0.50;;;0.50;;
16300;SDS011;8258;51.020;4.248;2023-04-06T04:55:01;1.97;;;1.83;;
16300;SDS011;8258;51.020;4.248;2023-04-06T04:57:29;0.07;;;0.07;;
16300;SDS011;8258;51.020;4.248;2023-04-06T04:59:55;0.00;;;0.00;;
16300;SDS011;8258;51.020;4.248;2023-04-06T05:02:23;0.00;;;0.00;;
16300;SDS011;8258;51.020;4.248;2023-04-06T05:04:50;0.77;;;0.77;;
16300;SDS011;8258;51.020;4.248;2023-04-06T05:07:18;0.83;;;0.83;;
16300;SDS011;8258;51.020;4.248;2023-04-06T05:09:46;0.00;;;0.00;;
16300;SDS011;8258;51.020;4.248;2023-04-06T05:12:13;0.23;;;0.23;;
16300;SDS011;8258;51.020;4.248;2023-04-06T05:14:40;3.50;;;3.30;;
16300;SDS011;8258;51.020;4.248;2023-04-06T05:17:07;0.00;;;0.00;;
16300;SDS011;8258;51.020;4.248;2023-04-06T05:19:34;0.00;;;0.00;;
16300;SDS011;8258;51.020;4.248;2023-04-06T05:22:01;0.00;;;0.00;;
16300;SDS011;8258;51.020;4.248;2023-04-06T05:24:30;0.00;;;0.00;;
16300;SDS011;8258;51.020;4.248;2023-04-06T05:26:57;0.00;;;0.00;;
16300;SDS011;8258;51.020;4.248;2023-04-06T05:29:25;3.53;;;2.33;;
16300;SDS011;8258;51.020;4.248;2023-04-06T05:31:52;1.63;;;1.07;;
16300;SDS011;8258;51.020;4.248;2023-04-06T05:34:19;1.10;;;1.10;;
16300;SDS011;8258;51.020;4.248;2023-04-06T05:36:46;0.00;;;0.00;;
16300;SDS011;8258;51.020;4.248;2023-04-06T05:39:13;0.00;;;0.00;;
16300;SDS011;8258;51.020;4.248;2023-04-06T05:41:41;0.05;;;0.05;;
16300;SDS011;8258;51.020;4.248;2023-04-06T05:44:08;0.00;;;0.00;;
16300;SDS011;8258;51.020;4.248;2023-04-06T05:46:35;1.40;;;1.30;;
16300;SDS011;8258;51.020;4.248;2023-04-06T05:49:02;0.27;;;0.27;;
16300;SDS011;8258;51.020;4.248;2023-04-06T05:51:29;2.13;;;0.97;;
16300;SDS011;8258;51.020;4.248;2023-04-06T05:53:56;0.27;;;0.27;;
16300;SDS011;8258;51.020;4.248;2023-04-06T05:56:24;0.00;;;0.00;;
16300;SDS011;8258;51.020;4.248;2023-04-06T05:58:52;0.30;;;0.30;;
16300;SDS011;8258;51.020;4.248;2023-04-06T06:01:19;6.03;;;1.97;;
16300;SDS011;8258;51.020;4.248;2023-04-06T06:03:46;2.87;;;2.67;;
16300;SDS011;8258;51.020;4.248;2023-04-06T06:06:13;0.77;;;0.77;;
16300;SDS011;8258;51.020;4.248;2023-04-06T06:08:40;1.03;;;0.30;;
16300;SDS011;8258;51.020;4.248;2023-04-06T06:11:07;0.53;;;0.53;;
16300;SDS011;8258;51.020;4.248;2023-04-06T06:13:34;0.00;;;0.00;;
16300;SDS011;8258;51.020;4.248;2023-04-06T06:16:03;0.67;;;0.67;;
16300;SDS011;8258;51.020;4.248;2023-04-06T06:18:30;0.97;;;0.63;;
16300;SDS011;8258;51.020;4.248;2023-04-06T06:20:57;1.80;;;1.60;;
16300;SDS011;8258;51.020;4.248;2023-04-06T06:23:25;1.17;;;1.13;;
16300;SDS011;8258;51.020;4.248;2023-04-06T06:25:52;0.00;;;0.00;;
16300;SDS011;8258;51.020;4.248;2023-04-06T06:28:21;2.63;;;2.53;;
16300;SDS011;8258;51.020;4.248;2023-04-06T06:30:50;0.67;;;0.67;;
16300;SDS011;8258;51.020;4.248;2023-04-06T06:33:18;0.53;;;0.53;;
16300;SDS011;8258;51.020;4.248;2023-04-06T06:35:45;0.00;;;0.00;;
16300;SDS011;8258;51.020;4.248;2023-04-06T06:38:12;0.30;;;0.30;;
16300;SDS011;8258;51.020;4.248;2023-04-06T06:40:40;0.40;;;0.40;;
16300;SDS011;8258;51.020;4.248;2023-04-06T06:43:07;2.07;;;0.87;;
16300;SDS011;8258;51.020;4.248;2023-04-06T06:45:34;3.37;;;1.93;;
16300;SDS011;8258;51.020;4.248;2023-04-06T06:48:01;0.73;;;0.37;;
16300;SDS011;8258;51.020;4.248;2023-04-06T06:50:29;2.33;;;0.90;;
16300;SDS011;8258;51.020;4.248;2023-04-06T06:52:56;0.97;;;0.93;;
16300;SDS011;8258;51.020;4.248;2023-04-06T06:55:23;0.00;;;0.00;;
16300;SDS011;8258;51.020;4.248;2023-04-06T06:57:51;0.00;;;0.00;;
16300;SDS011;8258;51.020;4.248;2023-04-06T07:00:19;0.53;;;0.53;;
16300;SDS011;8258;51.020;4.248;2023-04-06T07:02:46;0.37;;;0.37;;
16300;SDS011;8258;51.020;4.248;2023-04-06T07:05:15;0.50;;;0.50;;
16300;SDS011;8258;51.020;4.248;2023-04-06T07:07:44;0.73;;;0.73;;
16300;SDS011;8258;51.020;4.248;2023-04-06T07:10:11;0.50;;;0.33;;
16300;SDS011;8258;51.020;4.248;2023-04-06T07:12:38;0.47;;;0.43;;
16300;SDS011;8258;51.020;4.248;2023-04-06T07:15:05;0.33;;;0.33;;
16300;SDS011;8258;51.020;4.248;2023-04-06T07:17:33;0.43;;;0.13;;
16300;SDS011;8258;51.020;4.248;2023-04-06T07:20:00;0.60;;;0.60;;
16300;SDS011;8258;51.020;4.248;2023-04-06T07:22:27;0.40;;;0.40;;
16300;SDS011;8258;51.020;4.248;2023-04-06T07:24:55;0.43;;;0.43;;
16300;SDS011;8258;51.020;4.248;2023-04-06T07:27:22;0.30;;;0.30;;
16300;SDS011;8258;51.020;4.248;2023-04-06T07:29:49;0.60;;;0.60;;
16300;SDS011;8258;51.020;4.248;2023-04-06T07:32:16;1.90;;;1.80;;
16300;SDS011;8258;51.020;4.248;2023-04-06T07:34:43;1.47;;;1.37;;
16300;SDS011;8258;51.020;4.248;2023-04-06T07:37:11;0.60;;;0.60;;
16300;SDS011;8258;51.020;4.248;2023-04-06T07:39:39;1.70;;;0.80;;
16300;SDS011;8258;51.020;4.248;2023-04-06T07:42:07;1.43;;;0.47;;
16300;SDS011;8258;51.020;4.248;2023-04-06T07:44:35;0.77;;;0.77;;
16300;SDS011;8258;51.020;4.248;2023-04-06T07:47:02;0.77;;;0.63;;
16300;SDS011;8258;51.020;4.248;2023-04-06T07:49:29;2.57;;;0.87;;
16300;SDS011;8258;51.020;4.248;2023-04-06T07:51:57;1.80;;;1.53;;
16300;SDS011;8258;51.020;4.248;2023-04-06T07:54:24;0.50;;;0.50;;
16300;SDS011;8258;51.020;4.248;2023-04-06T07:56:51;0.27;;;0.27;;
16300;SDS011;8258;51.020;4.248;2023-04-06T07:59:19;0.40;;;0.40;;
16300;SDS011;8258;51.020;4.248;2023-04-06T08:01:46;2.53;;;1.07;;
16300;SDS011;8258;51.020;4.248;2023-04-06T08:04:13;12.43;;;1.07;;
16300;SDS011;8258;51.020;4.248;2023-04-06T08:06:40;0.40;;;0.40;;
16300;SDS011;8258;51.020;4.248;2023-04-06T08:09:07;1.33;;;0.50;;
16300;SDS011;8258;51.020;4.248;2023-04-06T08:11:34;0.50;;;0.50;;
16300;SDS011;8258;51.020;4.248;2023-04-06T08:14:01;0.07;;;0.07;;
16300;SDS011;8258;51.020;4.248;2023-04-06T08:16:30;0.57;;;0.57;;
16300;SDS011;8258;51.020;4.248;2023-04-06T08:18:57;0.00;;;0.00;;
16300;SDS011;8258;51.020;4.248;2023-04-06T08:21:24;0.20;;;0.20;;
16300;SDS011;8258;51.020;4.248;2023-04-06T08:23:51;2.60;;;1.17;;
16300;SDS011;8258;51.020;4.248;2023-04-06T08:26:18;0.63;;;0.20;;
16300;SDS011;8258;51.020;4.248;2023-04-06T08:28:45;0.67;;;0.67;;
16300;SDS011;8258;51.020;4.248;2023-04-06T08:31:12;0.20;;;0.10;;
16300;SDS011;8258;51.020;4.248;2023-04-06T08:33:40;0.00;;;0.00;;
16300;SDS011;8258;51.020;4.248;2023-04-06T08:36:08;0.63;;;0.30;;
16300;SDS011;8258;51.020;4.248;2023-04-06T08:38:35;0.60;;;0.60;;
16300;SDS011;8258;51.020;4.248;2023-04-06T08:41:08;0.73;;;0.57;;
16300;SDS011;8258;51.020;4.248;2023-04-06T08:43:41;0.93;;;0.83;;
16300;SDS011;8258;51.020;4.248;2023-04-06T08:46:10;0.63;;;0.63;;
16300;SDS011;8258;51.020;4.248;2023-04-06T08:48:38;0.43;;;0.43;;
16300;SDS011;8258;51.020;4.248;2023-04-06T08:51:07;2.53;;;1.63;;
16300;SDS011;8258;51.020;4.248;2023-04-06T08:53:34;2.13;;;0.80;;
16300;SDS011;8258;51.020;4.248;2023-04-06T08:56:02;0.20;;;0.20;;
16300;SDS011;8258;51.020;4.248;2023-04-06T08:58:32;0.97;;;0.20;;
16300;SDS011;8258;51.020;4.248;2023-04-06T09:01:01;0.77;;;0.70;;
16300;SDS011;8258;51.020;4.248;2023-04-06T09:03:32;2.93;;;1.90;;
16300;SDS011;8258;51.020;4.248;2023-04-06T09:06:04;1.43;;;1.30;;
16300;SDS011;8258;51.020;4.248;2023-04-06T09:08:32;0.73;;;0.70;;
16300;SDS011;8258;51.020;4.248;2023-04-06T09:11:00;1.27;;;1.17;;
16300;SDS011;8258;51.020;4.248;2023-04-06T09:13:27;2.50;;;1.50;;
16300;SDS011;8258;51.020;4.248;2023-04-06T09:15:58;2.20;;;1.57;;
16300;SDS011;8258;51.020;4.248;2023-04-06T09:18:29;4.60;;;2.17;;
16300;SDS011;8258;51.020;4.248;2023-04-06T09:20:58;1.07;;;0.83;;
16300;SDS011;8258;51.020;4.248;2023-04-06T09:23:27;1.50;;;0.93;;
16300;SDS011;8258;51.020;4.248;2023-04-06T09:26:05;1.57;;;1.23;;
16300;SDS011;8258;51.020;4.248;2023-04-06T09:28:42;0.40;;;0.33;;
16300;SDS011;8258;51.020;4.248;2023-04-06T09:31:11;0.30;;;0.30;;
16300;SDS011;8258;51.020;4.248;2023-04-06T09:33:38;1.13;;;1.10;;
16300;SDS011;8258;51.020;4.248;2023-04-06T09:36:07;2.73;;;0.97;;
16300;SDS011;8258;51.020;4.248;2023-04-06T09:38:37;0.30;;;0.30;;
16300;SDS011;8258;51.020;4.248;2023-04-06T09:41:05;0.20;;;0.20;;
16300;SDS011;8258;51.020;4.248;2023-04-06T09:43:32;1.40;;;1.23;;
16300;SDS011;8258;51.020;4.248;2023-04-06T09:46:00;3.47;;;1.97;;
16300;SDS011;8258;51.020;4.248;2023-04-06T09:48:30;2.33;;;1.47;;
16300;SDS011;8258;51.020;4.248;2023-04-06T09:51:01;3.40;;;2.90;;
16300;SDS011;8258;51.020;4.248;2023-04-06T09:53:30;0.47;;;0.03;;
16300;SDS011;8258;51.020;4.248;2023-04-06T09:56:03;2.00;;;1.67;;
16300;SDS011;8258;51.020;4.248;2023-04-06T09:58:33;0.87;;;0.87;;
16300;SDS011;8258;51.020;4.248;2023-04-06T10:01:03;1.33;;;0.67;;
16300;SDS011;8258;51.020;4.248;2023-04-06T10:03:36;1.37;;;0.90;;
16300;SDS011;8258;51.020;4.248;2023-04-06T10:06:11;2.30;;;1.53;;
16300;SDS011;8258;51.020;4.248;2023-04-06T10:08:41;1.27;;;1.23;;
16300;SDS011;8258;51.020;4.248;2023-04-06T10:11:13;1.80;;;1.50;;
16300;SDS011;8258;51.020;4.248;2023-04-06T10:13:41;0.10;;;0.10;;
16300;SDS011;8258;51.020;4.248;2023-04-06T10:16:09;0.40;;;0.40;;
16300;SDS011;8258;51.020;4.248;2023-04-06T10:18:38;2.03;;;1.87;;
16300;SDS011;8258;51.020;4.248;2023-04-06T10:21:08;2.90;;;0.43;;
16300;SDS011;8258;51.020;4.248;2023-04-06T10:23:41;2.27;;;1.90;;
16300;SDS011;8258;51.020;4.248;2023-04-06T10:26:14;1.10;;;0.70;;
16300;SDS011;8258;51.020;4.248;2023-04-06T10:28:42;0.73;;;0.57;;
16300;SDS011;8258;51.020;4.248;2023-04-06T10:31:11;2.07;;;1.77;;
16300;SDS011;8258;51.020;4.248;2023-04-06T10:33:39;1.13;;;1.13;;
16300;SDS011;8258;51.020;4.248;2023-04-06T10:36:10;1.23;;;1.07;;
16300;SDS011;8258;51.020;4.248;2023-04-06T10:38:38;1.70;;;1.60;;
16300;SDS011;8258;51.020;4.248;2023-04-06T10:41:05;2.03;;;1.77;;
16300;SDS011;8258;51.020;4.248;2023-04-06T10:43:35;4.27;;;1.47;;
16300;SDS011;8258;51.020;4.248;2023-04-06T10:46:04;1.00;;;1.00;;
16300;SDS011;8258;51.020;4.248;2023-04-06T10:48:38;3.17;;;2.47;;
16300;SDS011;8258;51.020;4.248;2023-04-06T10:51:07;2.70;;;2.10;;
16300;SDS011;8258;51.020;4.248;2023-04-06T10:53:35;1.50;;;1.13;;
16300;SDS011;8258;51.020;4.248;2023-04-06T10:56:03;0.30;;;0.27;;
16300;SDS011;8258;51.020;4.248;2023-04-06T10:58:36;1.60;;;1.20;;
16300;SDS011;8258;51.020;4.248;2023-04-06T11:01:03;2.50;;;0.93;;
16300;SDS011;8258;51.020;4.248;2023-04-06T11:03:31;1.03;;;1.03;;
16300;SDS011;8258;51.020;4.248;2023-04-06T11:05:59;3.17;;;2.50;;
16300;SDS011;8258;51.020;4.248;2023-04-06T11:08:26;4.50;;;2.13;;
16300;SDS011;8258;51.020;4.248;2023-04-06T11:11:04;1.00;;;0.73;;
16300;SDS011;8258;51.020;4.248;2023-04-06T11:13:40;2.60;;;2.40;;
16300;SDS011;8258;51.020;4.248;2023-04-06T11:16:11;4.03;;;3.63;;
16300;SDS011;8258;51.020;4.248;2023-04-06T11:18:46;2.07;;;1.47;;
16300;SDS011;8258;51.020;4.248;2023-04-06T11:21:17;4.67;;;2.40;;
16300;SDS011;8258;51.020;4.248;2023-04-06T11:23:44;6.87;;;3.67;;
16300;SDS011;8258;51.020;4.248;2023-04-06T11:26:12;2.40;;;1.83;;
16300;SDS011;8258;51.020;4.248;2023-04-06T11:28:41;8.47;;;2.30;;
16300;SDS011;8258;51.020;4.248;2023-04-06T11:31:08;2.30;;;1.93;;
16300;SDS011;8258;51.020;4.248;2023-04-06T11:33:36;9.10;;;3.37;;
16300;SDS011;8258;51.020;4.248;2023-04-06T11:36:05;2.37;;;2.03;;
16300;SDS011;8258;51.020;4.248;2023-04-06T11:38:32;4.97;;;2.77;;
16300;SDS011;8258;51.020;4.248;2023-04-06T11:41:00;1.17;;;1.07;;
16300;SDS011;8258;51.020;4.248;2023-04-06T11:43:28;6.60;;;2.80;;
16300;SDS011;8258;51.020;4.248;2023-04-06T11:46:01;5.13;;;3.10;;
16300;SDS011;8258;51.020;4.248;2023-04-06T11:48:28;6.73;;;3.50;;
16300;SDS011;8258;51.020;4.248;2023-04-06T11:50:56;6.47;;;2.97;;
16300;SDS011;8258;51.020;4.248;2023-04-06T11:53:26;6.30;;;4.00;;
16300;SDS011;8258;51.020;4.248;2023-04-06T11:55:53;1.60;;;0.53;;
16300;SDS011;8258;51.020;4.248;2023-04-06T11:58:20;4.13;;;2.63;;
16300;SDS011;8258;51.020;4.248;2023-04-06T12:00:47;2.30;;;1.70;;
16300;SDS011;8258;51.020;4.248;2023-04-06T12:03:16;3.80;;;1.90;;
16300;SDS011;8258;51.020;4.248;2023-04-06T12:05:43;2.53;;;2.27;;
16300;SDS011;8258;51.020;4.248;2023-04-06T12:08:10;6.33;;;2.70;;
16300;SDS011;8258;51.020;4.248;2023-04-06T12:10:37;5.53;;;2.43;;
16300;SDS011;8258;51.020;4.248;2023-04-06T12:13:04;6.53;;;2.57;;
16300;SDS011;8258;51.020;4.248;2023-04-06T12:15:31;3.43;;;3.10;;
16300;SDS011;8258;51.020;4.248;2023-04-06T12:17:58;2.43;;;2.33;;
16300;SDS011;8258;51.020;4.248;2023-04-06T12:20:27;5.53;;;3.90;;
16300;SDS011;8258;51.020;4.248;2023-04-06T12:22:54;4.47;;;3.73;;
16300;SDS011;8258;51.020;4.248;2023-04-06T12:25:21;9.23;;;3.43;;
16300;SDS011;8258;51.020;4.248;2023-04-06T12:27:48;1.00;;;0.37;;
16300;SDS011;8258;51.020;4.248;2023-04-06T12:30:15;4.30;;;2.97;;
16300;SDS011;8258;51.020;4.248;2023-04-06T12:32:42;2.93;;;1.33;;
16300;SDS011;8258;51.020;4.248;2023-04-06T12:35:09;5.33;;;2.90;;
16300;SDS011;8258;51.020;4.248;2023-04-06T12:37:42;2.57;;;2.00;;
16300;SDS011;8258;51.020;4.248;2023-04-06T12:40:09;1.97;;;1.83;;
16300;SDS011;8258;51.020;4.248;2023-04-06T12:42:38;5.10;;;2.47;;
16300;SDS011;8258;51.020;4.248;2023-04-06T12:45:07;7.17;;;3.47;;
16300;SDS011;8258;51.020;4.248;2023-04-06T12:47:34;8.40;;;3.70;;
16300;SDS011;8258;51.020;4.248;2023-04-06T12:50:03;4.00;;;1.83;;
16300;SDS011;8258;51.020;4.248;2023-04-06T12:52:31;2.43;;;2.03;;
16300;SDS011;8258;51.020;4.248;2023-04-06T12:55:01;2.67;;;2.43;;
16300;SDS011;8258;51.020;4.248;2023-04-06T12:57:30;3.40;;;3.03;;
16300;SDS011;8258;51.020;4.248;2023-04-06T12:59:57;2.97;;;2.70;;
16300;SDS011;8258;51.020;4.248;2023-04-06T13:02:25;3.37;;;2.20;;
16300;SDS011;8258;51.020;4.248;2023-04-06T13:04:52;2.00;;;1.23;;
16300;SDS011;8258;51.020;4.248;2023-04-06T13:07:19;6.80;;;3.90;;
16300;SDS011;8258;51.020;4.248;2023-04-06T13:09:46;5.17;;;4.67;;
16300;SDS011;8258;51.020;4.248;2023-04-06T13:12:15;4.80;;;3.70;;
16300;SDS011;8258;51.020;4.248;2023-04-06T13:14:42;5.53;;;3.03;;
16300;SDS011;8258;51.020;4.248;2023-04-06T13:17:12;7.03;;;5.37;;
16300;SDS011;8258;51.020;4.248;2023-04-06T13:19:39;7.87;;;3.10;;
16300;SDS011;8258;51.020;4.248;2023-04-06T13:22:06;3.10;;;1.60;;
16300;SDS011;8258;51.020;4.248;2023-04-06T13:24:33;2.57;;;2.37;;
16300;SDS011;8258;51.020;4.248;2023-04-06T13:27:00;1.73;;;1.57;;
16300;SDS011;8258;51.020;4.248;2023-04-06T13:29:29;3.10;;;2.80;;
16300;SDS011;8258;51.020;4.248;2023-04-06T13:31:56;5.93;;;4.07;;
16300;SDS011;8258;51.020;4.248;2023-04-06T13:34:23;6.70;;;3.03;;
16300;SDS011;8258;51.020;4.248;2023-04-06T13:36:50;5.20;;;1.60;;
16300;SDS011;8258;51.020;4.248;2023-04-06T13:39:17;2.03;;;1.40;;
16300;SDS011;8258;51.020;4.248;2023-04-06T13:41:44;4.47;;;3.50;;
16300;SDS011;8258;51.020;4.248;2023-04-06T13:44:11;4.17;;;1.00;;
16300;SDS011;8258;51.020;4.248;2023-04-06T13:46:39;3.20;;;2.93;;
16300;SDS011;8258;51.020;4.248;2023-04-06T13:49:06;5.13;;;3.97;;
16300;SDS011;8258;51.020;4.248;2023-04-06T13:51:33;3.40;;;3.10;;
16300;SDS011;8258;51.020;4.248;2023-04-06T13:54:00;2.37;;;2.20;;
16300;SDS011;8258;51.020;4.248;2023-04-06T13:56:27;1.90;;;1.80;;
16300;SDS011;8258;51.020;4.248;2023-04-06T13:58:54;3.43;;;2.63;;
16300;SDS011;8258;51.020;4.248;2023-04-06T14:01:22;5.63;;;3.63;;
16300;SDS011;8258;51.020;4.248;2023-04-06T14:03:52;2.77;;;2.00;;
16300;SDS011;8258;51.020;4.248;2023-04-06T14:06:19;11.43;;;5.33;;
16300;SDS011;8258;51.020;4.248;2023-04-06T14:08:46;4.47;;;2.93;;
16300;SDS011;8258;51.020;4.248;2023-04-06T14:11:13;8.97;;;4.23;;
16300;SDS011;8258;51.020;4.248;2023-04-06T14:13:41;7.83;;;2.53;;
16300;SDS011;8258;51.020;4.248;2023-04-06T14:16:08;5.07;;;2.03;;
16300;SDS011;8258;51.020;4.248;2023-04-06T14:18:36;2.50;;;1.47;;
16300;SDS011;8258;51.020;4.248;2023-04-06T14:21:04;5.83;;;3.43;;
16300;SDS011;8258;51.020;4.248;2023-04-06T14:23:31;2.50;;;2.20;;
16300;SDS011;8258;51.020;4.248;2023-04-06T14:26:02;0.53;;;0.30;;
16300;SDS011;8258;51.020;4.248;2023-04-06T14:28:30;2.80;;;2.50;;
16300;SDS011;8258;51.020;4.248;2023-04-06T14:30:58;0.73;;;0.73;;
16300;SDS011;8258;51.020;4.248;2023-04-06T14:33:25;3.20;;;2.57;;
16300;SDS011;8258;51.020;4.248;2023-04-06T14:35:52;5.57;;;2.43;;
16300;SDS011;8258;51.020;4.248;2023-04-06T14:38:21;8.53;;;4.03;;
16300;SDS011;8258;51.020;4.248;2023-04-06T14:40:48;3.87;;;2.10;;
16300;SDS011;8258;51.020;4.248;2023-04-06T14:43:15;2.40;;;2.20;;
16300;SDS011;8258;51.020;4.248;2023-04-06T14:45:43;1.43;;;1.00;;
16300;SDS011;8258;51.020;4.248;2023-04-06T14:48:10;4.47;;;2.50;;
16300;SDS011;8258;51.020;4.248;2023-04-06T14:50:37;3.70;;;2.53;;
16300;SDS011;8258;51.020;4.248;2023-04-06T14:53:04;3.80;;;1.17;;
16300;SDS011;8258;51.020;4.248;2023-04-06T14:55:33;1.00;;;0.97;;
16300;SDS011;8258;51.020;4.248;2023-04-06T14:58:05;3.30;;;3.00;;
16300;SDS011;8258;51.020;4.248;2023-04-06T15:00:32;2.60;;;1.87;;
16300;SDS011;8258;51.020;4.248;2023-04-06T15:02:59;3.23;;;2.93;;